createdAt,value
2022-08-28T00:00:21.600Z,7.95
2022-08-28T00:05:25.524Z,4.63
2022-08-28T00:10:28.139Z,8.98
2022-08-28T00:15:31.968Z,6.70
2022-08-28T00:20:34.181Z,4.07
2022-08-28T00:25:35.914Z,3.65
2022-08-28T00:30:41.687Z,8.25
2022-08-28T00:35:43.460Z,4.57
2022-08-28T00:40:47.581Z,8.13
2022-08-28T00:45:49.023Z,6.53
2022-08-28T00:51:08.950Z,3.70
2022-08-28T00:56:13.164Z,6.38
2022-08-28T01:01:15.416Z,5.70
2022-08-28T01:06:19.881Z,4.50
2022-08-28T01:11:21.275Z,9.38
2022-08-28T01:16:23.144Z,4.70
2022-08-28T01:21:50.056Z,7.80
2022-08-28T01:26:51.385Z,5.85
2022-08-28T01:31:52.776Z,8.98
2022-08-28T01:36:54.216Z,6.03
2022-08-28T01:41:58.775Z,3.13
2022-08-28T01:47:00.137Z,6.00
2022-08-28T01:52:01.313Z,3.20
2022-08-28T01:57:05.225Z,6.60
2022-08-28T02:02:09.841Z,5.68
2022-08-28T02:07:11.292Z,6.25
2022-08-28T02:12:12.473Z,9.27
2022-08-28T02:17:13.698Z,4.40
2022-08-28T02:22:14.932Z,8.60
2022-08-28T02:27:16.164Z,8.00
2022-08-28T02:32:17.842Z,12.93
2022-08-28T02:37:20.796Z,6.03
2022-08-28T02:42:22.225Z,10.27
2022-08-28T02:47:23.596Z,7.80
2022-08-28T02:52:24.975Z,4.70
2022-08-28T02:57:26.641Z,8.68
2022-08-28T03:02:27.992Z,9.70
2022-08-28T03:07:29.472Z,8.15
2022-08-28T03:12:31.322Z,6.22
2022-08-28T03:17:33.084Z,12.52
2022-08-28T03:22:52.670Z,9.73
2022-08-28T03:27:54.470Z,11.88
2022-08-28T03:32:55.642Z,10.33
2022-08-28T03:37:56.870Z,10.75
2022-08-28T03:42:58.244Z,8.45
2022-08-28T03:48:00.874Z,11.63
2022-08-28T03:53:02.398Z,9.80
2022-08-28T03:58:03.607Z,9.57
2022-08-28T04:03:04.918Z,9.90
2022-08-28T04:08:07.392Z,14.37
2022-08-28T04:13:09.592Z,13.23
2022-08-28T04:18:11.491Z,8.45
2022-08-28T04:23:12.903Z,13.80
2022-08-28T04:28:14.488Z,6.63
2022-08-28T04:33:15.829Z,15.07
2022-08-28T04:38:17.334Z,13.17
2022-08-28T04:43:18.743Z,13.90
2022-08-28T04:48:20.173Z,10.63
2022-08-28T04:53:21.542Z,10.73
2022-08-28T04:58:24.119Z,8.93
2022-08-28T05:03:25.649Z,12.40
2022-08-28T05:08:28.797Z,11.50
2022-08-28T05:13:30.406Z,7.67
2022-08-28T05:18:32.224Z,12.70
2022-08-28T05:23:33.691Z,11.80
2022-08-28T05:28:34.839Z,11.07
2022-08-28T05:33:36.197Z,9.60
2022-08-28T05:38:40.240Z,9.07
2022-08-28T05:43:41.613Z,9.90
2022-08-28T05:48:44.883Z,9.13
2022-08-28T05:53:49.004Z,10.75
2022-08-28T05:58:50.401Z,10.43
2022-08-28T06:04:01.202Z,15.75
2022-08-28T06:09:14.077Z,13.98
2022-08-28T06:14:19.850Z,9.20
2022-08-28T06:19:23.674Z,7.65
2022-08-28T06:24:27.226Z,11.70
2022-08-28T06:29:29.080Z,9.63
2022-08-28T06:34:30.644Z,10.75
2022-08-28T06:39:31.836Z,9.07
2022-08-28T06:44:33.186Z,10.27
2022-08-28T06:49:34.936Z,12.90
2022-08-28T06:54:36.113Z,11.13
2022-08-28T06:59:37.342Z,10.32
2022-08-28T07:04:38.961Z,8.18
2022-08-28T07:09:40.344Z,10.88
2022-08-28T07:14:42.043Z,7.50
2022-08-28T07:19:43.232Z,9.00
2022-08-28T07:24:44.512Z,5.70
2022-08-28T07:29:45.653Z,10.18
2022-08-28T07:34:47.757Z,6.50
2022-08-28T07:39:49.081Z,8.32
2022-08-28T07:44:50.506Z,8.40
2022-08-28T07:49:52.735Z,6.15
2022-08-28T07:54:55.173Z,8.57
2022-08-28T07:59:56.627Z,8.35
2022-08-28T08:04:57.884Z,10.90
2022-08-28T08:09:59.215Z,9.52
2022-08-28T08:15:00.675Z,5.72
2022-08-28T08:20:02.596Z,6.63
2022-08-28T08:25:04.783Z,9.68
2022-08-28T08:30:06.602Z,8.48
2022-08-28T08:35:08.099Z,7.22
2022-08-28T08:40:15.031Z,6.90
2022-08-28T08:45:20.740Z,8.27
2022-08-28T08:50:29.317Z,7.43
2022-08-28T08:55:36.951Z,8.30
2022-08-28T09:01:04.140Z,5.43
2022-08-28T09:06:11.817Z,8.00
2022-08-28T09:11:33.604Z,10.27
2022-08-28T09:16:39.498Z,7.65
2022-08-28T09:21:43.374Z,7.97
2022-08-28T09:26:51.852Z,5.32
2022-08-28T09:31:54.078Z,6.63
2022-08-28T09:36:57.944Z,7.85
2022-08-28T09:42:33.936Z,6.25
2022-08-28T09:47:47.994Z,9.25
2022-08-28T09:52:50.853Z,8.63
2022-08-28T09:57:52.252Z,4.75
2022-08-28T10:03:17.680Z,9.27
2022-08-28T10:08:44.100Z,4.15
2022-08-28T10:14:35.044Z,8.70
2022-08-28T10:20:01.148Z,7.85
2022-08-28T10:25:08.700Z,8.05
2022-08-28T10:30:18.664Z,6.43
2022-08-28T10:35:29.147Z,7.10
2022-08-28T10:40:34.615Z,8.70
2022-08-28T10:45:38.240Z,8.30
2022-08-28T10:50:47.504Z,6.60
2022-08-28T10:55:57.227Z,3.97
2022-08-28T11:01:04.420Z,10.38
2022-08-28T11:06:13.073Z,8.20
2022-08-28T11:11:34.391Z,5.75
2022-08-28T11:16:44.626Z,6.22
2022-08-28T11:21:48.847Z,7.63
2022-08-28T11:27:28.641Z,5.13
2022-08-28T11:32:32.981Z,5.07
2022-08-28T11:37:41.239Z,4.85
2022-08-28T11:42:42.629Z,8.00
2022-08-28T11:47:47.549Z,5.90
2022-08-28T11:53:31.094Z,6.07
2022-08-28T11:59:03.125Z,5.00
2022-08-28T12:04:12.598Z,7.85
2022-08-28T12:09:26.229Z,4.55
2022-08-28T12:14:27.607Z,6.43
2022-08-28T12:19:52.465Z,5.00
2022-08-28T12:25:06.432Z,5.72
2022-08-28T12:30:08.152Z,3.80
2022-08-28T12:35:25.994Z,4.72
2022-08-28T12:40:52.601Z,7.70
2022-08-28T12:46:01.304Z,6.40
2022-08-28T12:51:07.286Z,6.32
2022-08-28T12:56:11.415Z,6.15
2022-08-28T13:01:15.079Z,5.82
2022-08-28T13:06:25.701Z,5.35
2022-08-28T13:11:35.457Z,6.28
2022-08-28T13:16:45.853Z,7.35
2022-08-28T13:21:47.198Z,4.35
2022-08-28T13:27:12.283Z,7.53
2022-08-28T13:32:17.571Z,6.13
2022-08-28T13:37:45.827Z,6.03
2022-08-28T13:42:47.525Z,6.72
2022-08-28T13:47:48.917Z,4.60
2022-08-28T13:52:50.397Z,5.47
2022-08-28T13:57:51.761Z,3.92
2022-08-28T14:03:11.635Z,3.40
2022-08-28T14:08:13.031Z,3.13
2022-08-28T14:13:14.520Z,6.80
2022-08-28T14:18:17.387Z,4.22
2022-08-28T14:23:18.975Z,3.88
2022-08-28T14:28:20.405Z,2.30
2022-08-28T14:33:21.817Z,3.30
2022-08-28T14:38:24.477Z,3.63
2022-08-28T14:43:26.532Z,1.92
2022-08-28T14:48:28.569Z,4.20
2022-08-28T14:53:29.912Z,2.83
2022-08-28T14:58:32.957Z,3.67
2022-08-28T15:03:35.296Z,5.93
2022-08-28T15:08:37.410Z,3.35
2022-08-28T15:13:38.625Z,4.07
2022-08-28T15:18:40.967Z,7.38
2022-08-28T15:23:43.054Z,4.35
2022-08-28T15:28:44.735Z,4.03
2022-08-28T15:33:45.862Z,2.95
2022-08-28T15:39:05.519Z,3.03
2022-08-28T15:44:06.761Z,9.02
2022-08-28T15:49:09.354Z,4.82
2022-08-28T15:54:12.384Z,11.38
2022-08-28T15:59:14.085Z,3.65
2022-08-28T16:04:16.308Z,5.75
2022-08-28T16:09:17.879Z,3.03
2022-08-28T16:14:21.148Z,3.47
2022-08-28T16:19:22.397Z,4.72
2022-08-28T16:24:23.625Z,3.75
2022-08-28T16:29:24.777Z,2.45
2022-08-28T16:34:30.811Z,2.65
2022-08-28T16:39:32.812Z,4.13
2022-08-28T16:44:34.494Z,2.97
2022-08-28T16:49:35.645Z,1.80
2022-08-28T16:54:36.928Z,9.13
2022-08-28T16:59:47.773Z,2.75
2022-08-28T17:04:55.270Z,2.78
2022-08-28T17:09:56.489Z,2.50
2022-08-28T17:15:00.691Z,3.88
2022-08-28T17:20:04.344Z,3.33
2022-08-28T17:25:13.135Z,3.33
2022-08-28T17:30:17.482Z,3.05
2022-08-28T17:35:19.129Z,1.92
2022-08-28T17:40:22.015Z,3.45
2022-08-28T17:45:23.571Z,4.57
2022-08-28T17:50:25.056Z,3.30
2022-08-28T17:55:28.592Z,4.35
2022-08-28T18:00:30.673Z,1.92
2022-08-28T18:05:32.556Z,2.72
2022-08-28T18:10:35.155Z,2.05
2022-08-28T18:15:36.766Z,4.85
2022-08-28T18:20:39.895Z,3.70
2022-08-28T18:25:41.371Z,3.78
2022-08-28T18:30:46.224Z,3.72
2022-08-28T18:35:49.467Z,6.53
2022-08-28T18:40:51.112Z,4.60
2022-08-28T18:45:52.452Z,2.42
2022-08-28T18:50:54.116Z,1.75
2022-08-28T18:55:55.417Z,4.38
2022-08-28T19:00:57.381Z,2.80
2022-08-28T19:05:58.959Z,3.50
2022-08-28T19:11:06.890Z,2.63
2022-08-28T19:16:08.578Z,3.63
2022-08-28T19:21:15.140Z,3.50
2022-08-28T19:26:18.334Z,5.55
2022-08-28T19:31:20.565Z,3.92
2022-08-28T19:36:22.474Z,3.15
2022-08-28T19:41:23.767Z,2.80
2022-08-28T19:46:25.269Z,3.30
2022-08-28T19:51:26.764Z,4.38
2022-08-28T19:56:30.850Z,2.10
2022-08-28T20:01:36.374Z,4.25
2022-08-28T20:06:38.059Z,4.72
2022-08-28T20:11:41.418Z,3.78
2022-08-28T20:16:44.767Z,2.65
2022-08-28T20:21:49.402Z,2.85
2022-08-28T20:26:52.052Z,1.60
2022-08-28T20:31:53.416Z,5.20
2022-08-28T20:37:02.089Z,4.38
2022-08-28T20:42:05.571Z,3.45
2022-08-28T20:47:06.960Z,3.65
2022-08-28T20:52:12.475Z,3.35
2022-08-28T20:57:17.076Z,4.25
2022-08-28T21:02:21.464Z,3.33
2022-08-28T21:07:24.585Z,4.50
2022-08-28T21:12:25.927Z,4.25
2022-08-28T21:17:29.728Z,3.13
2022-08-28T21:22:32.800Z,7.72
2022-08-28T21:27:35.830Z,3.23
2022-08-28T21:32:40.300Z,5.00
2022-08-28T21:37:42.374Z,3.50
2022-08-28T21:42:43.914Z,2.40
2022-08-28T21:47:45.250Z,5.67
2022-08-28T21:52:46.397Z,6.30
2022-08-28T21:57:48.127Z,7.10
2022-08-28T22:02:49.989Z,3.30
2022-08-28T22:07:51.561Z,7.13
2022-08-28T22:12:52.798Z,4.67
2022-08-28T22:17:54.194Z,3.83
2022-08-28T22:23:10.612Z,6.87
2022-08-28T22:28:11.931Z,3.40
2022-08-28T22:33:13.372Z,3.67
2022-08-28T22:38:15.037Z,3.53
2022-08-28T22:43:18.168Z,2.80
2022-08-28T22:48:19.617Z,7.33
2022-08-28T22:53:20.983Z,5.30
2022-08-28T22:58:22.742Z,6.10
2022-08-28T23:03:24.598Z,4.97
2022-08-28T23:08:27.183Z,2.90
2022-08-28T23:13:31.273Z,7.60
2022-08-28T23:18:51.879Z,3.67
2022-08-28T23:23:55.663Z,4.97
2022-08-28T23:28:57.001Z,2.90
2022-08-28T23:33:58.343Z,4.90
2022-08-28T23:39:00.522Z,5.67
2022-08-28T23:44:07.822Z,5.13
2022-08-28T23:49:10.880Z,4.13
2022-08-28T23:54:12.253Z,7.30
2022-08-28T23:59:13.447Z,4.37
